sensor_id;sensor_type;location;lat;lon;timestamp;P1;durP1;ratioP1;P2;durP2;ratioP2
4704;SDS011;2366;51.332;6.610;2023-04-01T00:01:04;5.47;;;1.30;;
4704;SDS011;2366;51.332;6.610;2023-04-01T00:03:31;6.25;;;1.90;;
4704;SDS011;2366;51.332;6.610;2023-04-01T00:05:58;2.75;;;1.17;;
4704;SDS011;2366;51.332;6.610;2023-04-01T00:08:24;4.32;;;1.35;;
4704;SDS011;2366;51.332;6.610;2023-04-01T00:10:51;2.03;;;1.55;;
4704;SDS011;2366;51.332;6.610;2023-04-01T00:13:17;1.95;;;0.93;;
4704;SDS011;2366;51.332;6.610;2023-04-01T00:15:43;1.97;;;1.13;;
4704;SDS011;2366;51.332;6.610;2023-04-01T00:18:08;2.87;;;1.40;;
4704;SDS011;2366;51.332;6.610;2023-04-01T00:20:34;3.80;;;1.10;;
4704;SDS011;2366;51.332;6.610;2023-04-01T00:22:59;6.50;;;1.50;;
4704;SDS011;2366;51.332;6.610;2023-04-01T00:25:25;3.03;;;1.47;;
4704;SDS011;2366;51.332;6.610;2023-04-01T00:27:50;7.07;;;1.87;;
4704;SDS011;2366;51.332;6.610;2023-04-01T00:30:16;2.90;;;1.23;;
4704;SDS011;2366;51.332;6.610;2023-04-01T00:32:42;1.43;;;1.20;;
4704;SDS011;2366;51.332;6.610;2023-04-01T00:35:07;6.10;;;1.23;;
4704;SDS011;2366;51.332;6.610;2023-04-01T00:37:37;4.13;;;1.33;;
4704;SDS011;2366;51.332;6.610;2023-04-01T00:40:05;7.35;;;1.65;;
4704;SDS011;2366;51.332;6.610;2023-04-01T00:42:32;3.80;;;1.63;;
4704;SDS011;2366;51.332;6.610;2023-04-01T00:44:58;1.90;;;1.30;;
4704;SDS011;2366;51.332;6.610;2023-04-01T00:47:23;4.00;;;1.50;;
4704;SDS011;2366;51.332;6.610;2023-04-01T00:49:51;4.07;;;2.13;;
4704;SDS011;2366;51.332;6.610;2023-04-01T00:52:20;4.32;;;1.80;;
4704;SDS011;2366;51.332;6.610;2023-04-01T00:54:49;5.45;;;1.17;;
4704;SDS011;2366;51.332;6.610;2023-04-01T00:57:23;3.85;;;1.08;;
4704;SDS011;2366;51.332;6.610;2023-04-01T00:59:50;5.05;;;1.35;;
4704;SDS011;2366;51.332;6.610;2023-04-01T01:02:19;2.25;;;1.02;;
4704;SDS011;2366;51.332;6.610;2023-04-01T01:04:44;4.10;;;1.90;;
4704;SDS011;2366;51.332;6.610;2023-04-01T01:07:18;8.20;;;1.40;;
4704;SDS011;2366;51.332;6.610;2023-04-01T01:12:41;1.60;;;1.23;;
4704;SDS011;2366;51.332;6.610;2023-04-01T01:26:34;3.20;;;1.23;;
4704;SDS011;2366;51.332;6.610;2023-04-01T01:31:35;5.97;;;0.98;;
4704;SDS011;2366;51.332;6.610;2023-04-01T01:34:11;1.00;;;0.90;;
4704;SDS011;2366;51.332;6.610;2023-04-01T01:36:48;2.20;;;1.10;;
4704;SDS011;2366;51.332;6.610;2023-04-01T01:39:20;1.27;;;0.90;;
4704;SDS011;2366;51.332;6.610;2023-04-01T01:41:52;3.10;;;0.80;;
4704;SDS011;2366;51.332;6.610;2023-04-01T01:44:21;2.67;;;0.95;;
4704;SDS011;2366;51.332;6.610;2023-04-01T01:46:47;1.35;;;0.85;;
4704;SDS011;2366;51.332;6.610;2023-04-01T01:49:13;2.38;;;1.20;;
4704;SDS011;2366;51.332;6.610;2023-04-01T01:51:40;1.70;;;0.98;;
4704;SDS011;2366;51.332;6.610;2023-04-01T01:54:11;7.78;;;1.83;;
4704;SDS011;2366;51.332;6.610;2023-04-01T01:56:38;4.15;;;1.30;;
4704;SDS011;2366;51.332;6.610;2023-04-01T01:59:05;3.83;;;1.35;;
4704;SDS011;2366;51.332;6.610;2023-04-01T02:01:35;1.35;;;0.90;;
4704;SDS011;2366;51.332;6.610;2023-04-01T02:04:07;3.58;;;1.20;;
4704;SDS011;2366;51.332;6.610;2023-04-01T02:06:35;1.20;;;1.08;;
4704;SDS011;2366;51.332;6.610;2023-04-01T02:09:04;3.08;;;1.08;;
4704;SDS011;2366;51.332;6.610;2023-04-01T02:11:41;0.95;;;0.65;;
4704;SDS011;2366;51.332;6.610;2023-04-01T02:14:26;1.50;;;1.08;;
4704;SDS011;2366;51.332;6.610;2023-04-01T02:17:19;5.57;;;2.55;;
4704;SDS011;2366;51.332;6.610;2023-04-01T02:19:51;4.90;;;1.83;;
4704;SDS011;2366;51.332;6.610;2023-04-01T02:22:24;1.95;;;1.38;;
4704;SDS011;2366;51.332;6.610;2023-04-01T02:24:53;2.05;;;1.30;;
4704;SDS011;2366;51.332;6.610;2023-04-01T02:27:23;2.15;;;1.27;;
4704;SDS011;2366;51.332;6.610;2023-04-01T02:29:49;3.80;;;1.30;;
4704;SDS011;2366;51.332;6.610;2023-04-01T02:32:16;2.65;;;1.42;;
4704;SDS011;2366;51.332;6.610;2023-04-01T02:34:44;3.38;;;1.30;;
4704;SDS011;2366;51.332;6.610;2023-04-01T02:37:10;1.27;;;0.80;;
4704;SDS011;2366;51.332;6.610;2023-04-01T02:39:37;1.15;;;0.80;;
4704;SDS011;2366;51.332;6.610;2023-04-01T02:42:02;2.87;;;1.00;;
4704;SDS011;2366;51.332;6.610;2023-04-01T02:44:28;4.50;;;1.47;;
4704;SDS011;2366;51.332;6.610;2023-04-01T02:46:53;3.60;;;1.50;;
4704;SDS011;2366;51.332;6.610;2023-04-01T02:49:19;1.50;;;0.90;;
4704;SDS011;2366;51.332;6.610;2023-04-01T02:51:44;2.77;;;1.20;;
4704;SDS011;2366;51.332;6.610;2023-04-01T02:54:10;2.00;;;1.10;;
4704;SDS011;2366;51.332;6.610;2023-04-01T02:56:35;2.30;;;1.30;;
4704;SDS011;2366;51.332;6.610;2023-04-01T02:59:00;4.50;;;1.43;;
4704;SDS011;2366;51.332;6.610;2023-04-01T03:01:26;4.60;;;1.30;;
4704;SDS011;2366;51.332;6.610;2023-04-01T03:03:51;1.67;;;1.10;;
4704;SDS011;2366;51.332;6.610;2023-04-01T03:06:17;0.93;;;0.90;;
4704;SDS011;2366;51.332;6.610;2023-04-01T03:08:42;1.53;;;1.43;;
4704;SDS011;2366;51.332;6.610;2023-04-01T03:11:09;5.40;;;1.83;;
4704;SDS011;2366;51.332;6.610;2023-04-01T03:13:35;1.17;;;1.17;;
4704;SDS011;2366;51.332;6.610;2023-04-01T03:16:00;1.90;;;1.00;;
4704;SDS011;2366;51.332;6.610;2023-04-01T03:18:26;4.00;;;1.03;;
4704;SDS011;2366;51.332;6.610;2023-04-01T03:20:51;2.13;;;1.10;;
4704;SDS011;2366;51.332;6.610;2023-04-01T03:23:16;3.00;;;1.30;;
4704;SDS011;2366;51.332;6.610;2023-04-01T03:25:44;4.32;;;1.10;;
4704;SDS011;2366;51.332;6.610;2023-04-01T03:28:09;10.27;;;2.03;;
4704;SDS011;2366;51.332;6.610;2023-04-01T03:30:35;1.50;;;1.40;;
4704;SDS011;2366;51.332;6.610;2023-04-01T03:33:01;1.80;;;1.70;;
4704;SDS011;2366;51.332;6.610;2023-04-01T03:35:27;1.00;;;1.00;;
4704;SDS011;2366;51.332;6.610;2023-04-01T03:37:53;2.07;;;1.20;;
4704;SDS011;2366;51.332;6.610;2023-04-01T03:40:19;4.32;;;1.23;;
4704;SDS011;2366;51.332;6.610;2023-04-01T03:42:45;2.10;;;1.42;;
4704;SDS011;2366;51.332;6.610;2023-04-01T03:45:11;2.00;;;1.37;;
4704;SDS011;2366;51.332;6.610;2023-04-01T03:47:39;2.80;;;1.20;;
4704;SDS011;2366;51.332;6.610;2023-04-01T03:50:05;0.90;;;0.90;;
4704;SDS011;2366;51.332;6.610;2023-04-01T03:52:32;2.35;;;1.20;;
4704;SDS011;2366;51.332;6.610;2023-04-01T03:54:57;4.20;;;1.90;;
4704;SDS011;2366;51.332;6.610;2023-04-01T03:57:23;0.90;;;0.90;;
4704;SDS011;2366;51.332;6.610;2023-04-01T03:59:48;1.13;;;1.13;;
4704;SDS011;2366;51.332;6.610;2023-04-01T04:02:14;1.93;;;1.07;;
4704;SDS011;2366;51.332;6.610;2023-04-01T04:04:39;3.13;;;1.90;;
4704;SDS011;2366;51.332;6.610;2023-04-01T04:07:05;2.38;;;1.10;;
4704;SDS011;2366;51.332;6.610;2023-04-01T04:09:31;11.10;;;1.03;;
4704;SDS011;2366;51.332;6.610;2023-04-01T04:11:57;1.93;;;1.40;;
4704;SDS011;2366;51.332;6.610;2023-04-01T04:14:22;1.00;;;0.97;;
4704;SDS011;2366;51.332;6.610;2023-04-01T04:16:48;4.47;;;1.23;;
4704;SDS011;2366;51.332;6.610;2023-04-01T04:19:14;4.43;;;1.40;;
4704;SDS011;2366;51.332;6.610;2023-04-01T04:21:40;1.27;;;1.17;;
4704;SDS011;2366;51.332;6.610;2023-04-01T04:24:07;1.73;;;1.42;;
4704;SDS011;2366;51.332;6.610;2023-04-01T04:26:32;2.03;;;1.80;;
4704;SDS011;2366;51.332;6.610;2023-04-01T04:28:57;1.53;;;1.43;;
4704;SDS011;2366;51.332;6.610;2023-04-01T04:31:23;2.50;;;2.30;;
4704;SDS011;2366;51.332;6.610;2023-04-01T04:33:50;2.75;;;1.90;;
4704;SDS011;2366;51.332;6.610;2023-04-01T04:36:16;1.60;;;1.50;;
4704;SDS011;2366;51.332;6.610;2023-04-01T04:38:43;2.47;;;2.28;;
4704;SDS011;2366;51.332;6.610;2023-04-01T04:41:11;1.80;;;1.70;;
4704;SDS011;2366;51.332;6.610;2023-04-01T04:43:39;1.67;;;1.58;;
4704;SDS011;2366;51.332;6.610;2023-04-01T04:46:08;2.67;;;2.10;;
4704;SDS011;2366;51.332;6.610;2023-04-01T04:48:34;8.35;;;2.35;;
4704;SDS011;2366;51.332;6.610;2023-04-01T04:51:00;2.10;;;2.00;;
4704;SDS011;2366;51.332;6.610;2023-04-01T04:53:26;6.20;;;2.95;;
4704;SDS011;2366;51.332;6.610;2023-04-01T04:55:52;5.13;;;2.73;;
4704;SDS011;2366;51.332;6.610;2023-04-01T04:58:17;3.07;;;2.77;;
4704;SDS011;2366;51.332;6.610;2023-04-01T05:00:43;4.07;;;3.33;;
4704;SDS011;2366;51.332;6.610;2023-04-01T05:03:10;3.75;;;2.60;;
4704;SDS011;2366;51.332;6.610;2023-04-01T05:05:36;4.80;;;3.60;;
4704;SDS011;2366;51.332;6.610;2023-04-01T05:08:02;6.10;;;3.70;;
4704;SDS011;2366;51.332;6.610;2023-04-01T05:10:27;2.77;;;2.57;;
4704;SDS011;2366;51.332;6.610;2023-04-01T05:12:53;3.13;;;2.93;;
4704;SDS011;2366;51.332;6.610;2023-04-01T05:15:18;4.87;;;4.47;;
4704;SDS011;2366;51.332;6.610;2023-04-01T05:17:43;3.87;;;3.40;;
4704;SDS011;2366;51.332;6.610;2023-04-01T05:20:10;5.00;;;4.30;;
4704;SDS011;2366;51.332;6.610;2023-04-01T05:22:37;7.05;;;4.65;;
4704;SDS011;2366;51.332;6.610;2023-04-01T05:25:02;3.60;;;3.30;;
4704;SDS011;2366;51.332;6.610;2023-04-01T05:27:27;4.23;;;3.73;;
4704;SDS011;2366;51.332;6.610;2023-04-01T05:29:53;6.10;;;4.67;;
4704;SDS011;2366;51.332;6.610;2023-04-01T05:32:18;4.90;;;3.47;;
4704;SDS011;2366;51.332;6.610;2023-04-01T05:34:44;3.83;;;3.43;;
4704;SDS011;2366;51.332;6.610;2023-04-01T05:37:09;4.40;;;4.00;;
4704;SDS011;2366;51.332;6.610;2023-04-01T05:39:36;4.23;;;3.70;;
4704;SDS011;2366;51.332;6.610;2023-04-01T05:42:07;5.10;;;4.60;;
4704;SDS011;2366;51.332;6.610;2023-04-01T05:44:33;4.28;;;3.97;;
4704;SDS011;2366;51.332;6.610;2023-04-01T05:46:59;7.70;;;5.15;;
4704;SDS011;2366;51.332;6.610;2023-04-01T05:49:24;9.70;;;5.00;;
4704;SDS011;2366;51.332;6.610;2023-04-01T05:51:50;6.60;;;5.27;;
4704;SDS011;2366;51.332;6.610;2023-04-01T05:54:16;4.10;;;3.70;;
4704;SDS011;2366;51.332;6.610;2023-04-01T05:56:42;5.00;;;4.50;;
4704;SDS011;2366;51.332;6.610;2023-04-01T05:59:09;4.83;;;4.40;;
4704;SDS011;2366;51.332;6.610;2023-04-01T06:01:35;4.85;;;4.45;;
4704;SDS011;2366;51.332;6.610;2023-04-01T06:04:01;4.40;;;3.83;;
4704;SDS011;2366;51.332;6.610;2023-04-01T06:06:27;5.13;;;4.63;;
4704;SDS011;2366;51.332;6.610;2023-04-01T06:08:53;5.10;;;4.60;;
4704;SDS011;2366;51.332;6.610;2023-04-01T06:11:36;5.22;;;4.70;;
4704;SDS011;2366;51.332;6.610;2023-04-01T06:14:16;5.90;;;5.40;;
4704;SDS011;2366;51.332;6.610;2023-04-01T06:16:58;6.03;;;5.43;;
4704;SDS011;2366;51.332;6.610;2023-04-01T06:19:47;6.15;;;5.55;;
4704;SDS011;2366;51.332;6.610;2023-04-01T06:25:32;5.70;;;5.15;;
4704;SDS011;2366;51.332;6.610;2023-04-01T06:47:01;6.80;;;5.15;;
4704;SDS011;2366;51.332;6.610;2023-04-01T06:55:00;4.57;;;4.18;;
4704;SDS011;2366;51.332;6.610;2023-04-01T06:57:58;3.80;;;3.50;;
4704;SDS011;2366;51.332;6.610;2023-04-01T07:06:02;8.73;;;3.45;;
4704;SDS011;2366;51.332;6.610;2023-04-01T07:08:30;5.63;;;4.20;;
4704;SDS011;2366;51.332;6.610;2023-04-01T07:11:01;5.43;;;4.03;;
4704;SDS011;2366;51.332;6.610;2023-04-01T07:18:41;3.40;;;3.10;;
4704;SDS011;2366;51.332;6.610;2023-04-01T07:21:35;3.03;;;2.83;;
4704;SDS011;2366;51.332;6.610;2023-04-01T07:24:39;2.72;;;2.53;;
4704;SDS011;2366;51.332;6.610;2023-04-01T07:27:02;2.90;;;2.55;;
4704;SDS011;2366;51.332;6.610;2023-04-01T07:29:30;3.33;;;2.70;;
4704;SDS011;2366;51.332;6.610;2023-04-01T07:35:13;3.97;;;3.63;;
4704;SDS011;2366;51.332;6.610;2023-04-01T07:51:17;3.80;;;3.60;;
4704;SDS011;2366;51.332;6.610;2023-04-01T07:56:51;3.95;;;3.65;;
4704;SDS011;2366;51.332;6.610;2023-04-01T07:59:33;4.47;;;4.18;;
4704;SDS011;2366;51.332;6.610;2023-04-01T08:07:50;3.65;;;3.45;;
4704;SDS011;2366;51.332;6.610;2023-04-01T08:10:32;3.47;;;3.28;;
4704;SDS011;2366;51.332;6.610;2023-04-01T08:13:45;3.60;;;3.40;;
4704;SDS011;2366;51.332;6.610;2023-04-01T08:16:06;3.20;;;3.00;;
4704;SDS011;2366;51.332;6.610;2023-04-01T08:21:31;3.70;;;3.50;;
4704;SDS011;2366;51.332;6.610;2023-04-01T08:24:05;3.83;;;3.63;;
4704;SDS011;2366;51.332;6.610;2023-04-01T08:26:42;4.25;;;3.53;;
4704;SDS011;2366;51.332;6.610;2023-04-01T08:29:26;3.65;;;3.45;;
4704;SDS011;2366;51.332;6.610;2023-04-01T08:31:58;5.35;;;4.95;;
4704;SDS011;2366;51.332;6.610;2023-04-01T08:34:37;6.13;;;4.70;;
4704;SDS011;2366;51.332;6.610;2023-04-01T08:37:05;5.72;;;5.28;;
4704;SDS011;2366;51.332;6.610;2023-04-01T08:39:39;5.00;;;4.55;;
4704;SDS011;2366;51.332;6.610;2023-04-01T08:51:02;5.65;;;5.15;;
4704;SDS011;2366;51.332;6.610;2023-04-01T08:53:57;7.25;;;6.53;;
4704;SDS011;2366;51.332;6.610;2023-04-01T08:56:40;6.43;;;5.78;;
4704;SDS011;2366;51.332;6.610;2023-04-01T09:02:13;6.60;;;6.00;;
4704;SDS011;2366;51.332;6.610;2023-04-01T09:10:30;12.40;;;7.10;;
4704;SDS011;2366;51.332;6.610;2023-04-01T09:48:29;11.02;;;9.82;;
4704;SDS011;2366;51.332;6.610;2023-04-01T10:08:19;11.93;;;10.60;;
4704;SDS011;2366;51.332;6.610;2023-04-01T10:19:01;17.23;;;10.00;;
4704;SDS011;2366;51.332;6.610;2023-04-01T10:24:39;9.77;;;8.65;;
4704;SDS011;2366;51.332;6.610;2023-04-01T10:27:21;12.45;;;9.43;;
4704;SDS011;2366;51.332;6.610;2023-04-01T10:55:35;8.57;;;7.82;;
4704;SDS011;2366;51.332;6.610;2023-04-01T10:58:43;8.45;;;7.75;;
4704;SDS011;2366;51.332;6.610;2023-04-01T11:14:57;8.48;;;7.68;;
4704;SDS011;2366;51.332;6.610;2023-04-01T11:20:41;8.57;;;7.85;;
4704;SDS011;2366;51.332;6.610;2023-04-01T11:23:32;12.20;;;7.90;;
4704;SDS011;2366;51.332;6.610;2023-04-01T11:26:33;8.88;;;8.00;;
4704;SDS011;2366;51.332;6.610;2023-04-01T11:51:36;7.63;;;6.82;;
4704;SDS011;2366;51.332;6.610;2023-04-01T11:54:24;7.82;;;7.07;;
4704;SDS011;2366;51.332;6.610;2023-04-01T12:00:25;7.03;;;6.43;;
4704;SDS011;2366;51.332;6.610;2023-04-01T12:08:28;8.75;;;7.93;;
4704;SDS011;2366;51.332;6.610;2023-04-01T12:11:05;17.25;;;12.98;;
4704;SDS011;2366;51.332;6.610;2023-04-01T12:16:42;8.20;;;7.50;;
4704;SDS011;2366;51.332;6.610;2023-04-01T12:21:42;8.65;;;7.75;;
4704;SDS011;2366;51.332;6.610;2023-04-01T12:24:39;9.52;;;8.27;;
4704;SDS011;2366;51.332;6.610;2023-04-01T12:38:05;10.10;;;8.20;;
4704;SDS011;2366;51.332;6.610;2023-04-01T12:40:56;9.35;;;8.15;;
4704;SDS011;2366;51.332;6.610;2023-04-01T12:46:36;8.20;;;7.47;;
4704;SDS011;2366;51.332;6.610;2023-04-01T12:55:07;7.65;;;7.05;;
4704;SDS011;2366;51.332;6.610;2023-04-01T13:08:28;9.27;;;7.20;;
4704;SDS011;2366;51.332;6.610;2023-04-01T13:13:42;7.60;;;6.80;;
4704;SDS011;2366;51.332;6.610;2023-04-01T13:16:21;9.35;;;7.68;;
4704;SDS011;2366;51.332;6.610;2023-04-01T13:21:59;6.68;;;6.07;;
4704;SDS011;2366;51.332;6.610;2023-04-01T13:27:12;6.40;;;5.80;;
4704;SDS011;2366;51.332;6.610;2023-04-01T13:29:46;7.97;;;5.75;;
4704;SDS011;2366;51.332;6.610;2023-04-01T13:32:31;6.97;;;5.22;;
4704;SDS011;2366;51.332;6.610;2023-04-01T13:43:39;6.97;;;5.47;;
4704;SDS011;2366;51.332;6.610;2023-04-01T13:46:08;5.40;;;4.90;;
4704;SDS011;2366;51.332;6.610;2023-04-01T13:49:05;7.43;;;4.97;;
4704;SDS011;2366;51.332;6.610;2023-04-01T13:54:40;5.90;;;5.30;;
4704;SDS011;2366;51.332;6.610;2023-04-01T13:57:26;6.22;;;4.88;;
4704;SDS011;2366;51.332;6.610;2023-04-01T14:13:56;5.07;;;4.57;;
4704;SDS011;2366;51.332;6.610;2023-04-01T14:25:01;5.65;;;5.15;;
4704;SDS011;2366;51.332;6.610;2023-04-01T14:38:39;4.55;;;4.20;;
4704;SDS011;2366;51.332;6.610;2023-04-01T14:41:19;4.50;;;4.10;;
4704;SDS011;2366;51.332;6.610;2023-04-01T14:58:10;5.50;;;4.40;;
4704;SDS011;2366;51.332;6.610;2023-04-01T15:01:00;6.00;;;5.40;;
4704;SDS011;2366;51.332;6.610;2023-04-01T15:03:35;5.78;;;5.25;;
4704;SDS011;2366;51.332;6.610;2023-04-01T15:22:54;4.22;;;3.92;;
4704;SDS011;2366;51.332;6.610;2023-04-01T15:25:30;4.60;;;4.10;;
4704;SDS011;2366;51.332;6.610;2023-04-01T15:41:37;4.73;;;3.90;;
4704;SDS011;2366;51.332;6.610;2023-04-01T15:49:51;5.47;;;4.90;;
4704;SDS011;2366;51.332;6.610;2023-04-01T15:52:23;4.60;;;4.10;;
4704;SDS011;2366;51.332;6.610;2023-04-01T15:55:03;10.07;;;4.63;;
4704;SDS011;2366;51.332;6.610;2023-04-01T16:03:54;4.68;;;4.28;;
4704;SDS011;2366;51.332;6.610;2023-04-01T16:12:54;4.90;;;4.50;;
4704;SDS011;2366;51.332;6.610;2023-04-01T16:21:01;4.25;;;3.83;;
4704;SDS011;2366;51.332;6.610;2023-04-01T16:26:11;4.03;;;3.72;;
4704;SDS011;2366;51.332;6.610;2023-04-01T16:28:53;5.03;;;4.63;;
4704;SDS011;2366;51.332;6.610;2023-04-01T16:34:17;4.40;;;3.95;;
4704;SDS011;2366;51.332;6.610;2023-04-01T16:36:48;5.40;;;4.93;;
4704;SDS011;2366;51.332;6.610;2023-04-01T16:39:37;5.57;;;4.40;;
4704;SDS011;2366;51.332;6.610;2023-04-01T16:42:20;5.03;;;4.60;;
4704;SDS011;2366;51.332;6.610;2023-04-01T16:45:15;4.80;;;4.40;;
4704;SDS011;2366;51.332;6.610;2023-04-01T16:47:49;4.85;;;4.55;;
4704;SDS011;2366;51.332;6.610;2023-04-01T16:50:21;5.18;;;4.72;;
4704;SDS011;2366;51.332;6.610;2023-04-01T16:55:43;6.82;;;4.82;;
4704;SDS011;2366;51.332;6.610;2023-04-01T17:01:26;6.13;;;5.65;;
4704;SDS011;2366;51.332;6.610;2023-04-01T17:03:58;6.70;;;5.22;;
4704;SDS011;2366;51.332;6.610;2023-04-01T17:06:38;6.50;;;5.90;;
4704;SDS011;2366;51.332;6.610;2023-04-01T17:11:54;6.22;;;5.63;;
4704;SDS011;2366;51.332;6.610;2023-04-01T17:18:09;6.05;;;5.45;;
4704;SDS011;2366;51.332;6.610;2023-04-01T17:21:07;7.10;;;5.80;;
4704;SDS011;2366;51.332;6.610;2023-04-01T17:26:26;7.60;;;5.88;;
4704;SDS011;2366;51.332;6.610;2023-04-01T17:42:59;7.10;;;6.50;;
4704;SDS011;2366;51.332;6.610;2023-04-01T17:45:33;7.40;;;6.25;;
4704;SDS011;2366;51.332;6.610;2023-04-01T17:50:58;9.27;;;6.57;;
4704;SDS011;2366;51.332;6.610;2023-04-01T17:53:47;7.88;;;7.10;;
4704;SDS011;2366;51.332;6.610;2023-04-01T17:56:18;9.20;;;7.53;;
4704;SDS011;2366;51.332;6.610;2023-04-01T17:59:28;8.25;;;7.38;;
4704;SDS011;2366;51.332;6.610;2023-04-01T18:04:50;9.23;;;7.10;;
4704;SDS011;2366;51.332;6.610;2023-04-01T18:07:44;8.88;;;7.00;;
4704;SDS011;2366;51.332;6.610;2023-04-01T18:21:29;13.70;;;9.15;;
4704;SDS011;2366;51.332;6.610;2023-04-01T18:27:00;10.13;;;9.13;;
4704;SDS011;2366;51.332;6.610;2023-04-01T18:29:44;10.45;;;9.38;;
4704;SDS011;2366;51.332;6.610;2023-04-01T18:35:16;11.23;;;9.85;;
4704;SDS011;2366;51.332;6.610;2023-04-01T18:40:38;13.57;;;10.18;;
4704;SDS011;2366;51.332;6.610;2023-04-01T18:43:21;9.88;;;8.88;;
4704;SDS011;2366;51.332;6.610;2023-04-01T18:45:59;13.70;;;9.35;;
4704;SDS011;2366;51.332;6.610;2023-04-01T18:54:16;7.70;;;6.90;;
4704;SDS011;2366;51.332;6.610;2023-04-01T18:56:48;8.60;;;7.78;;
4704;SDS011;2366;51.332;6.610;2023-04-01T19:01:55;8.77;;;8.05;;
4704;SDS011;2366;51.332;6.610;2023-04-01T19:04:30;8.98;;;8.07;;
4704;SDS011;2366;51.332;6.610;2023-04-01T19:07:19;8.80;;;6.82;;
4704;SDS011;2366;51.332;6.610;2023-04-01T19:09:52;11.63;;;7.65;;
4704;SDS011;2366;51.332;6.610;2023-04-01T19:21:18;8.20;;;7.30;;
4704;SDS011;2366;51.332;6.610;2023-04-01T19:28:52;13.18;;;7.38;;
4704;SDS011;2366;51.332;6.610;2023-04-01T19:37:30;8.38;;;7.45;;
4704;SDS011;2366;51.332;6.610;2023-04-01T19:45:35;9.40;;;8.50;;
4704;SDS011;2366;51.332;6.610;2023-04-01T19:48:18;9.50;;;8.35;;
4704;SDS011;2366;51.332;6.610;2023-04-01T19:51:27;8.60;;;7.70;;
4704;SDS011;2366;51.332;6.610;2023-04-01T19:59:03;9.27;;;8.38;;
4704;SDS011;2366;51.332;6.610;2023-04-01T20:01:44;10.55;;;8.10;;
4704;SDS011;2366;51.332;6.610;2023-04-01T20:04:22;8.63;;;7.82;;
4704;SDS011;2366;51.332;6.610;2023-04-01T20:14:54;8.60;;;6.63;;
4704;SDS011;2366;51.332;6.610;2023-04-01T20:20:15;8.73;;;7.78;;
4704;SDS011;2366;51.332;6.610;2023-04-01T20:27:53;12.10;;;10.55;;
4704;SDS011;2366;51.332;6.610;2023-04-01T20:30:38;11.00;;;9.43;;
4704;SDS011;2366;51.332;6.610;2023-04-01T20:43:56;11.52;;;10.30;;
4704;SDS011;2366;51.332;6.610;2023-04-01T20:49:32;10.75;;;9.65;;
4704;SDS011;2366;51.332;6.610;2023-04-01T20:57:46;11.50;;;9.85;;
4704;SDS011;2366;51.332;6.610;2023-04-01T21:03:18;10.50;;;9.55;;
4704;SDS011;2366;51.332;6.610;2023-04-01T21:16:25;12.73;;;10.63;;
4704;SDS011;2366;51.332;6.610;2023-04-01T21:29:57;6.05;;;5.55;;
4704;SDS011;2366;51.332;6.610;2023-04-01T21:32:44;7.15;;;5.60;;
4704;SDS011;2366;51.332;6.610;2023-04-01T21:43:22;10.45;;;7.88;;
4704;SDS011;2366;51.332;6.610;2023-04-01T21:46:18;8.65;;;7.75;;
4704;SDS011;2366;51.332;6.610;2023-04-01T21:49:21;10.25;;;9.27;;
4704;SDS011;2366;51.332;6.610;2023-04-01T21:51:54;10.82;;;9.73;;
4704;SDS011;2366;51.332;6.610;2023-04-01T21:57:53;8.18;;;7.28;;
4704;SDS011;2366;51.332;6.610;2023-04-01T22:00:27;9.45;;;8.15;;
4704;SDS011;2366;51.332;6.610;2023-04-01T22:05:47;9.38;;;8.48;;
4704;SDS011;2366;51.332;6.610;2023-04-01T22:11:11;6.97;;;6.28;;
4704;SDS011;2366;51.332;6.610;2023-04-01T22:16:16;6.70;;;6.03;;
4704;SDS011;2366;51.332;6.610;2023-04-01T22:19:04;7.18;;;6.57;;
4704;SDS011;2366;51.332;6.610;2023-04-01T22:24:29;8.13;;;7.30;;
4704;SDS011;2366;51.332;6.610;2023-04-01T22:27:18;8.73;;;6.85;;
4704;SDS011;2366;51.332;6.610;2023-04-01T22:40:22;15.10;;;13.55;;
4704;SDS011;2366;51.332;6.610;2023-04-01T22:42:53;13.82;;;12.23;;
4704;SDS011;2366;51.332;6.610;2023-04-01T22:45:31;15.80;;;11.88;;
4704;SDS011;2366;51.332;6.610;2023-04-01T22:56:20;11.75;;;10.45;;
4704;SDS011;2366;51.332;6.610;2023-04-01T22:58:55;9.52;;;8.32;;
4704;SDS011;2366;51.332;6.610;2023-04-01T23:01:29;6.88;;;5.68;;
4704;SDS011;2366;51.332;6.610;2023-04-01T23:03:57;9.77;;;7.82;;
4704;SDS011;2366;51.332;6.610;2023-04-01T23:06:26;8.18;;;7.30;;
4704;SDS011;2366;51.332;6.610;2023-04-01T23:09:05;14.82;;;10.23;;
4704;SDS011;2366;51.332;6.610;2023-04-01T23:31:35;10.38;;;8.98;;
4704;SDS011;2366;51.332;6.610;2023-04-01T23:34:18;9.80;;;8.65;;
4704;SDS011;2366;51.332;6.610;2023-04-01T23:36:48;14.32;;;9.98;;
4704;SDS011;2366;51.332;6.610;2023-04-01T23:41:47;17.60;;;11.93;;
4704;SDS011;2366;51.332;6.610;2023-04-01T23:44:13;16.27;;;10.27;;
4704;SDS011;2366;51.332;6.610;2023-04-01T23:46:40;13.15;;;9.90;;
4704;SDS011;2366;51.332;6.610;2023-04-01T23:49:20;13.38;;;9.65;;
4704;SDS011;2366;51.332;6.610;2023-04-01T23:51:52;18.45;;;12.23;;
4704;SDS011;2366;51.332;6.610;2023-04-01T23:54:33;13.57;;;11.25;;
4704;SDS011;2366;51.332;6.610;2023-04-01T23:57:06;9.57;;;8.00;;
4704;SDS011;2366;51.332;6.610;2023-04-01T23:59:37;8.00;;;6.93;;
